Time;durP1;ratioP1;P1;durP2;ratioP2;P2;SDS_P1;SDS_P2;PMS_P1;PMS_P2;Temp;Humidity;BMP_temperature;BMP_pressure;BME280_temperature;BME280_humidity;BME280_pressure;Samples;Min_cycle;Max_cycle;Signal;HPM_P1;HPM_P2
2023/01/27 00:00:06;;;;;;;18.00;4.78;;;8.70;99.90;;;;;;5050319;28;20063;-61
2023/01/27 00:02:32;;;;;;;17.13;4.30;;;9.10;99.90;;;;;;5051714;28;20068;-62
2023/01/27 00:04:58;;;;;;;14.57;4.28;;;9.00;99.90;;;;;;5053950;28;20033;-62
2023/01/27 00:07:23;;;;;;;18.23;4.68;;;8.70;99.90;;;;;;5052326;28;20060;-61
2023/01/27 00:09:49;;;;;;;13.52;4.50;;;9.00;99.90;;;;;;5052162;28;20053;-62
2023/01/27 00:15:10;;;;;;;13.23;6.85;;;8.50;99.90;;;;;;5051707;28;20033;-62
2023/01/27 00:17:35;;;;;;;14.05;6.68;;;8.70;99.90;;;;;;5052157;28;20080;-62
2023/01/27 00:20:02;;;;;;;13.57;7.30;;;8.70;99.90;;;;;;5053654;28;20095;-62
2023/01/27 00:25:11;;;;;;;20.60;8.20;;;8.40;99.90;;;;;;5058211;28;20052;-62
2023/01/27 00:27:37;;;;;;;18.15;8.05;;;8.60;99.90;;;;;;5060684;28;20403;-62
2023/01/27 00:30:05;;;;;;;17.50;7.90;;;8.60;99.90;;;;;;5052143;28;20415;-62
2023/01/27 00:35:15;;;;;;;15.90;8.40;;;8.70;99.90;;;;;;5053538;28;20053;-63
2023/01/27 00:37:41;;;;;;;20.58;9.43;;;8.70;99.90;;;;;;5052261;28;20049;-62
2023/01/27 00:40:08;;;;;;;15.10;9.20;;;8.40;99.90;;;;;;5043704;28;20063;-62
2023/01/27 00:42:34;;;;;;;17.95;8.35;;;8.50;99.90;;;;;;5065661;28;20049;-62
2023/01/27 00:47:43;;;;;;;16.27;7.68;;;8.60;99.90;;;;;;5052790;28;20410;-62
2023/01/27 00:50:09;;;;;;;13.27;6.65;;;8.50;99.90;;;;;;5052296;28;20045;-61
2023/01/27 00:52:35;;;;;;;15.63;6.78;;;8.30;99.90;;;;;;5051659;28;20072;-62
2023/01/27 00:55:00;;;;;;;14.52;6.63;;;8.50;99.90;;;;;;5066087;28;20045;-62
2023/01/27 00:57:26;;;;;;;11.23;5.78;;;8.20;99.90;;;;;;5062138;28;20041;-62
2023/01/27 00:59:52;;;;;;;10.75;4.97;;;8.40;99.90;;;;;;5034192;28;20068;-62
2023/01/27 01:02:17;;;;;;;12.18;4.65;;;8.30;94.10;;;;;;5052990;28;20040;-61
2023/01/27 01:04:43;;;;;;;10.90;4.55;;;8.10;79.70;;;;;;5052394;28;20083;-61
2023/01/27 01:07:08;;;;;;;10.88;4.57;;;8.20;54.90;;;;;;5051855;28;20065;-61
2023/01/27 01:09:34;;;;;;;10.20;4.53;;;8.30;40.60;;;;;;5065688;28;20055;-62
2023/01/27 01:11:59;;;;;;;10.77;4.50;;;8.40;29.60;;;;;;5072490;28;20139;-61
2023/01/27 01:14:25;;;;;;;10.02;4.97;;;8.40;19.90;;;;;;5060766;28;20040;-62
2023/01/27 01:16:51;;;;;;;12.52;4.78;;;8.30;14.30;;;;;;5047928;28;20037;-62
2023/01/27 01:19:16;;;;;;;14.40;5.00;;;8.30;11.00;;;;;;5050662;28;20048;-61
2023/01/27 01:21:42;;;;;;;14.23;4.75;;;8.00;9.00;;;;;;5050974;28;20051;-62
2023/01/27 01:24:07;;;;;;;17.17;4.45;;;8.20;8.20;;;;;;5051708;28;20048;-62
2023/01/27 01:26:33;;;;;;;13.57;4.40;;;8.10;8.70;;;;;;5050930;28;20044;-61
2023/01/27 01:28:58;;;;;;;12.60;4.30;;;8.30;12.30;;;;;;5057955;28;20064;-62
2023/01/27 01:31:24;;;;;;;13.82;4.57;;;8.20;17.40;;;;;;5052340;28;20099;-62
2023/01/27 01:33:50;;;;;;;12.40;4.45;;;7.90;25.10;;;;;;5052403;28;20088;-61
2023/01/27 01:36:17;;;;;;;12.43;4.28;;;7.90;47.40;;;;;;5050993;28;20048;-62
2023/01/27 01:38:43;;;;;;;17.02;4.35;;;7.90;47.70;;;;;;5050969;28;20470;-62
2023/01/27 01:41:13;;;;;;;13.43;3.90;;;8.20;60.30;;;;;;5052098;28;20037;-61
2023/01/27 01:43:38;;;;;;;15.15;4.05;;;8.20;72.30;;;;;;5054007;28;20436;-61
2023/01/27 01:46:06;;;;;;;20.77;4.30;;;8.10;80.30;;;;;;5051513;28;20128;-61
2023/01/27 01:48:48;;;;;;;18.17;4.15;;;8.20;82.80;;;;;;5051136;28;20091;-61
2023/01/27 01:51:42;;;;;;;12.48;3.88;;;8.00;84.60;;;;;;5084264;28;20045;-61
2023/01/27 01:54:16;;;;;;;13.48;4.30;;;8.20;80.60;;;;;;5069753;28;20056;-62
2023/01/27 01:57:01;;;;;;;13.15;3.53;;;7.70;75.70;;;;;;5067980;28;20040;-63
2023/01/27 01:59:35;;;;;;;14.50;3.65;;;8.10;57.70;;;;;;5054830;28;20053;-62
2023/01/27 02:02:08;;;;;;;9.80;2.85;;;7.70;37.00;;;;;;5051803;28;20033;-62
2023/01/27 02:04:40;;;;;;;10.30;3.15;;;7.80;11.20;;;;;;5050351;28;20048;-61
2023/01/27 02:07:12;;;;;;;13.32;3.65;;;7.80;1.00;;;;;;5049513;28;20094;-61
2023/01/27 02:09:38;;;;;;;16.92;3.97;;;7.80;1.00;;;;;;5065977;28;20498;-62
2023/01/27 02:12:04;;;;;;;14.43;4.75;;;7.70;1.00;;;;;;5071715;28;20048;-61
2023/01/27 02:14:30;;;;;;;12.32;4.03;;;7.70;1.00;;;;;;5066574;28;20075;-61
2023/01/27 02:16:57;;;;;;;13.90;3.53;;;7.60;1.00;;;;;;5057594;28;20077;-61
2023/01/27 02:19:54;;;;;;;12.23;3.20;;;7.60;1.00;;;;;;5051440;28;20037;-61
2023/01/27 02:22:40;;;;;;;9.93;3.08;;;7.50;1.00;;;;;;5047455;28;20139;-62
2023/01/27 02:25:15;;;;;;;12.68;3.50;;;7.60;1.00;;;;;;5047412;28;20098;-61
2023/01/27 02:27:41;;;;;;;13.43;3.83;;;7.40;1.00;;;;;;5050305;28;20068;-61
2023/01/27 02:30:07;;;;;;;15.18;3.63;;;7.60;1.00;;;;;;5055301;28;20482;-61
2023/01/27 02:32:33;;;;;;;13.95;3.35;;;7.40;1.00;;;;;;5070159;28;20123;-61
2023/01/27 02:35:00;;;;;;;12.23;3.35;;;7.30;1.00;;;;;;5071462;28;20121;-61
2023/01/27 02:37:26;;;;;;;14.32;2.88;;;7.30;1.00;;;;;;5068651;28;20037;-61
2023/01/27 02:39:54;;;;;;;6.95;2.63;;;7.60;1.00;;;;;;5059875;28;20076;-61
2023/01/27 02:42:20;;;;;;;9.30;3.08;;;7.50;1.00;;;;;;5070153;28;20040;-61
2023/01/27 02:44:45;;;;;;;12.57;3.10;;;7.60;1.00;;;;;;5050238;28;20036;-61
2023/01/27 02:47:11;;;;;;;6.07;2.50;;;7.40;1.00;;;;;;5071353;28;20123;-61
2023/01/27 02:49:37;;;;;;;10.55;2.78;;;7.40;1.00;;;;;;5048676;28;20098;-62
2023/01/27 02:52:02;;;;;;;11.52;2.83;;;7.30;1.00;;;;;;5049439;28;20040;-61
2023/01/27 02:54:29;;;;;;;11.70;3.03;;;7.30;1.00;;;;;;5081945;28;20090;-61
2023/01/27 02:56:54;;;;;;;7.50;2.55;;;7.10;1.00;;;;;;5050801;28;20064;-61
2023/01/27 02:59:20;;;;;;;7.07;2.78;;;7.10;1.00;;;;;;5050055;28;20049;-61
2023/01/27 03:01:45;;;;;;;8.00;2.53;;;7.10;1.00;;;;;;5048789;28;20399;-61
2023/01/27 03:04:11;;;;;;;7.15;2.65;;;6.80;1.00;;;;;;5082612;28;20037;-61
2023/01/27 03:06:37;;;;;;;8.45;2.75;;;6.70;1.00;;;;;;5050839;28;20076;-62
2023/01/27 03:09:04;;;;;;;7.65;2.40;;;6.70;1.00;;;;;;5054549;28;20048;-61
2023/01/27 03:14:15;;;;;;;7.13;2.30;;;6.80;1.00;;;;;;5054543;28;20048;-61
2023/01/27 03:19:25;;;;;;;9.82;2.83;;;6.80;1.00;;;;;;5070856;28;20128;-61
2023/01/27 03:21:52;;;;;;;9.77;2.30;;;6.70;1.00;;;;;;5054787;28;20037;-61
2023/01/27 03:24:19;;;;;;;5.85;2.42;;;6.60;1.00;;;;;;5053057;28;20041;-61
2023/01/27 03:26:45;;;;;;;16.30;3.17;;;6.70;1.00;;;;;;5054756;28;20068;-61
2023/01/27 03:31:55;;;;;;;8.88;2.33;;;6.70;1.00;;;;;;5034735;28;20491;-61
2023/01/27 03:34:20;;;;;;;10.48;2.30;;;7.10;1.00;;;;;;5051633;28;20040;-62
2023/01/27 03:47:43;;;;;;;6.88;2.10;;;7.00;1.00;;;;;;5053890;28;20477;-61
2023/01/27 03:50:18;;;;;;;8.90;2.45;;;6.80;1.00;;;;;;5052075;28;20128;-61
2023/01/27 03:53:01;;;;;;;9.75;2.65;;;6.90;1.00;;;;;;5068745;28;20051;-61
2023/01/27 03:55:29;;;;;;;8.10;2.65;;;7.00;1.00;;;;;;5063730;28;20037;-61
2023/01/27 03:58:13;;;;;;;7.55;2.92;;;7.10;1.00;;;;;;5072632;28;20036;-61
2023/01/27 04:00:39;;;;;;;7.88;2.25;;;7.10;1.00;;;;;;5059912;28;20243;-62
2023/01/27 04:08:33;;;;;;;8.13;2.78;;;7.10;1.00;;;;;;5075254;28;20060;-62
2023/01/27 04:13:47;;;;;;;9.93;2.92;;;7.20;1.00;;;;;;5053123;28;20049;-61
2023/01/27 04:16:13;;;;;;;7.75;2.75;;;7.10;1.00;;;;;;5053530;28;20036;-62
2023/01/27 04:18:38;;;;;;;14.15;3.17;;;7.00;1.00;;;;;;5085897;28;20080;-61
2023/01/27 04:21:04;;;;;;;9.60;2.85;;;6.90;1.00;;;;;;5050411;28;20037;-61
2023/01/27 04:23:30;;;;;;;7.90;2.90;;;7.00;1.00;;;;;;5059739;28;20087;-61
2023/01/27 04:25:55;;;;;;;10.57;2.88;;;7.00;1.00;;;;;;5068711;28;20036;-61
2023/01/27 04:28:21;;;;;;;6.53;2.70;;;6.70;1.00;;;;;;5050665;28;20139;-61
2023/01/27 04:30:47;;;;;;;11.77;2.75;;;6.90;1.00;;;;;;5052650;28;20171;-62
2023/01/27 04:33:14;;;;;;;7.82;2.80;;;6.70;1.00;;;;;;5085513;28;20491;-61
2023/01/27 04:35:44;;;;;;;6.13;2.60;;;6.50;1.00;;;;;;5049725;28;20453;-61
2023/01/27 04:38:10;;;;;;;6.30;2.60;;;6.30;1.00;;;;;;5057495;28;20040;-61
2023/01/27 04:40:36;;;;;;;11.93;3.25;;;6.50;1.00;;;;;;5049971;28;20128;-61
2023/01/27 04:43:01;;;;;;;9.13;3.00;;;6.00;1.00;;;;;;5049078;28;20112;-61
2023/01/27 04:45:27;;;;;;;10.10;2.67;;;6.40;1.00;;;;;;5051859;28;20115;-60
2023/01/27 04:47:52;;;;;;;5.18;2.40;;;6.30;1.00;;;;;;5052646;28;20032;-61
2023/01/27 04:50:18;;;;;;;13.13;2.90;;;5.80;1.00;;;;;;5050184;28;20045;-61
2023/01/27 04:52:44;;;;;;;8.25;2.95;;;5.90;1.00;;;;;;5059503;28;20090;-62
2023/01/27 04:55:10;;;;;;;7.43;2.90;;;5.90;1.00;;;;;;5072521;28;20047;-61
2023/01/27 04:57:35;;;;;;;9.00;2.65;;;5.60;1.00;;;;;;5057654;28;20398;-61
2023/01/27 05:00:04;;;;;;;8.45;2.78;;;5.50;1.00;;;;;;5050403;28;20036;-60
2023/01/27 05:02:30;;;;;;;12.63;3.10;;;5.60;1.00;;;;;;5052735;28;20037;-61
2023/01/27 05:04:55;;;;;;;15.45;3.10;;;5.60;1.00;;;;;;5068038;28;20049;-61
2023/01/27 05:07:21;;;;;;;10.55;2.92;;;5.50;1.00;;;;;;5052618;28;20067;-61
2023/01/27 05:09:46;;;;;;;10.05;3.05;;;5.30;1.00;;;;;;5061473;28;20140;-60
2023/01/27 05:12:12;;;;;;;6.40;3.10;;;5.30;1.00;;;;;;5061379;28;20028;-61
2023/01/27 05:14:37;;;;;;;10.02;3.00;;;5.80;1.00;;;;;;5051634;28;20045;-62
2023/01/27 05:17:03;;;;;;;10.02;3.33;;;5.50;1.00;;;;;;5051000;28;20484;-61
2023/01/27 05:19:28;;;;;;;11.35;3.17;;;5.80;1.00;;;;;;5052795;28;20440;-61
2023/01/27 05:21:54;;;;;;;8.38;3.30;;;5.60;1.00;;;;;;5052661;28;20403;-61
2023/01/27 05:24:19;;;;;;;9.35;3.30;;;5.30;1.00;;;;;;5052341;28;20045;-61
2023/01/27 05:26:45;;;;;;;19.02;3.60;;;5.60;1.00;;;;;;5050429;28;20670;-61
2023/01/27 05:29:11;;;;;;;12.98;3.45;;;5.70;1.00;;;;;;5034496;28;20507;-61
2023/01/27 05:31:36;;;;;;;7.30;3.15;;;5.50;1.00;;;;;;5067531;28;20037;-60
2023/01/27 05:34:02;;;;;;;12.27;3.45;;;5.20;1.00;;;;;;5052409;28;20044;-60
2023/01/27 05:36:29;;;;;;;9.88;3.42;;;5.30;1.00;;;;;;5050217;28;20074;-61
2023/01/27 05:38:55;;;;;;;10.63;3.40;;;5.10;6.30;;;;;;5052122;28;20048;-61
2023/01/27 05:41:21;;;;;;;17.02;3.33;;;4.70;18.40;;;;;;5086838;28;20055;-60
2023/01/27 05:43:52;;;;;;;7.55;3.10;;;5.20;24.30;;;;;;5068956;28;20049;-60
2023/01/27 05:46:23;;;;;;;11.70;3.28;;;4.90;23.50;;;;;;5041473;28;20037;-61
2023/01/27 05:48:51;;;;;;;12.70;3.20;;;4.60;27.80;;;;;;5067672;28;20044;-60
2023/01/27 05:51:20;;;;;;;10.15;3.08;;;5.10;48.30;;;;;;5052171;28;20043;-61
2023/01/27 05:53:46;;;;;;;17.95;3.72;;;4.40;68.60;;;;;;5065766;28;20033;-61
2023/01/27 05:56:13;;;;;;;19.73;4.38;;;4.50;90.90;;;;;;5060181;28;20060;-61
2023/01/27 05:58:39;;;;;;;16.13;3.40;;;4.60;98.90;;;;;;5065723;28;20111;-61
2023/01/27 06:01:14;;;;;;;10.90;3.20;;;4.70;99.90;;;;;;5071581;28;20032;-60
2023/01/27 06:03:40;;;;;;;12.60;3.85;;;5.10;99.90;;;;;;5065933;28;20094;-61
2023/01/27 06:06:07;;;;;;;13.73;3.42;;;4.70;99.90;;;;;;5049730;28;20406;-61
2023/01/27 06:08:33;;;;;;;9.18;3.38;;;4.90;99.90;;;;;;5051717;28;20502;-61
2023/01/27 06:10:59;;;;;;;11.23;3.92;;;4.90;99.90;;;;;;5071164;28;20036;-61
2023/01/27 06:13:25;;;;;;;13.75;4.05;;;5.10;99.90;;;;;;5056934;28;20124;-61
2023/01/27 06:15:50;;;;;;;14.50;4.43;;;4.60;99.90;;;;;;5051126;28;20524;-60
2023/01/27 06:18:18;;;;;;;10.30;3.88;;;4.60;99.90;;;;;;5051668;28;20121;-61
2023/01/27 06:20:44;;;;;;;11.52;3.60;;;5.10;99.90;;;;;;5051708;28;20546;-60
2023/01/27 06:23:11;;;;;;;6.40;3.10;;;4.50;99.90;;;;;;5051323;28;20086;-61
2023/01/27 06:25:39;;;;;;;9.63;3.35;;;4.90;99.90;;;;;;5049764;28;20033;-61
2023/01/27 06:28:06;;;;;;;16.05;3.92;;;4.60;99.90;;;;;;5059319;28;20036;-61
2023/01/27 06:30:36;;;;;;;10.10;4.00;;;4.60;99.90;;;;;;5071514;28;20125;-61
2023/01/27 06:33:02;;;;;;;13.63;3.92;;;4.50;99.90;;;;;;5054591;28;20029;-61
2023/01/27 06:35:28;;;;;;;13.95;3.78;;;4.20;99.90;;;;;;5050483;28;20135;-61
2023/01/27 06:37:56;;;;;;;8.23;3.92;;;4.30;99.90;;;;;;5049353;28;20069;-61
2023/01/27 06:40:21;;;;;;;9.57;3.70;;;4.50;99.90;;;;;;5061797;28;20043;-61
2023/01/27 06:42:47;;;;;;;9.55;3.50;;;4.60;99.90;;;;;;5069568;28;20397;-61
2023/01/27 06:45:13;;;;;;;12.25;3.95;;;4.50;99.90;;;;;;5056512;28;20045;-61
2023/01/27 06:47:39;;;;;;;8.05;3.70;;;4.80;99.90;;;;;;5054835;28;20055;-61
2023/01/27 06:50:06;;;;;;;9.95;3.67;;;4.90;99.90;;;;;;5055516;28;20083;-61
2023/01/27 06:52:32;;;;;;;10.90;3.60;;;4.80;99.90;;;;;;5055324;28;20548;-61
2023/01/27 06:54:57;;;;;;;9.40;3.75;;;4.60;99.90;;;;;;5064354;28;20048;-61
2023/01/27 06:57:23;;;;;;;10.27;3.90;;;4.30;99.90;;;;;;5064841;28;20091;-61
2023/01/27 06:59:48;;;;;;;11.25;3.63;;;4.30;99.90;;;;;;5069708;28;20127;-61
2023/01/27 07:02:14;;;;;;;10.57;4.00;;;4.40;99.90;;;;;;5075247;28;20036;-63
2023/01/27 07:04:39;;;;;;;9.55;3.47;;;5.00;99.90;;;;;;5053269;28;20504;-61
2023/01/27 07:07:05;;;;;;;9.57;3.85;;;4.50;99.90;;;;;;5054843;28;20107;-61
2023/01/27 07:09:31;;;;;;;9.07;3.70;;;4.40;99.90;;;;;;5061647;28;20048;-61
2023/01/27 07:11:56;;;;;;;12.90;3.58;;;4.50;99.90;;;;;;5074653;28;20044;-61
2023/01/27 07:14:22;;;;;;;9.10;3.08;;;5.00;99.90;;;;;;5054538;28;20048;-61
2023/01/27 07:16:48;;;;;;;13.02;4.75;;;4.70;1.00;;;;;;5054428;28;20030;-61
2023/01/27 07:19:15;;;;;;;8.52;3.15;;;5.20;1.00;;;;;;5054301;28;20077;-62
2023/01/27 07:21:41;;;;;;;8.55;3.63;;;4.70;99.90;;;;;;5054837;28;20044;-61
2023/01/27 07:24:07;;;;;;;7.10;2.97;;;5.00;99.90;;;;;;5059324;28;20059;-60
2023/01/27 07:26:33;;;;;;;8.13;2.65;;;5.10;99.90;;;;;;5054159;28;20037;-60
2023/01/27 07:28:58;;;;;;;9.05;2.70;;;4.90;99.90;;;;;;5085903;28;20045;-60
2023/01/27 07:31:24;;;;;;;10.25;2.33;;;5.00;99.90;;;;;;5052428;28;20036;-60
2023/01/27 07:33:51;;;;;;;7.00;2.50;;;4.90;99.90;;;;;;5054202;28;20041;-60
2023/01/27 07:36:16;;;;;;;8.18;2.45;;;4.90;99.90;;;;;;5050955;28;20112;-60
2023/01/27 07:38:42;;;;;;;11.80;2.63;;;4.90;99.90;;;;;;5072898;28;20163;-61
2023/01/27 07:41:07;;;;;;;8.25;2.28;;;5.40;99.90;;;;;;5074470;28;20041;-60
2023/01/27 07:43:33;;;;;;;9.25;2.20;;;5.30;99.90;;;;;;5059360;28;20036;-61
2023/01/27 07:45:59;;;;;;;8.35;2.20;;;5.50;99.90;;;;;;5054708;28;20119;-60
2023/01/27 07:48:25;;;;;;;7.80;2.58;;;5.70;99.90;;;;;;5052420;28;20040;-61
2023/01/27 07:50:50;;;;;;;7.35;2.10;;;5.70;99.90;;;;;;5050025;28;20044;-61
2023/01/27 07:53:16;;;;;;;8.38;2.67;;;5.60;99.90;;;;;;5057196;28;20387;-61
2023/01/27 07:55:42;;;;;;;7.63;2.20;;;5.80;99.90;;;;;;5070140;28;20037;-61
2023/01/27 07:58:08;;;;;;;6.38;2.00;;;6.10;99.90;;;;;;5052673;28;20033;-61
2023/01/27 08:00:34;;;;;;;5.60;1.98;;;6.00;90.10;;;;;;5051093;28;20037;-61
2023/01/27 08:03:01;;;;;;;8.25;1.85;;;6.20;45.90;;;;;;5052585;28;20358;-60
2023/01/27 08:05:28;;;;;;;5.07;1.95;;;6.20;13.50;;;;;;5048504;28;20068;-61
2023/01/27 08:07:54;;;;;;;8.18;2.03;;;6.30;1.00;;;;;;5050746;28;20099;-61
2023/01/27 08:10:21;;;;;;;11.93;2.33;;;6.30;1.00;;;;;;5052545;28;20052;-61
2023/01/27 08:12:46;;;;;;;6.47;1.92;;;6.20;1.00;;;;;;5050453;28;20039;-61
2023/01/27 08:15:13;;;;;;;9.43;2.20;;;6.20;1.00;;;;;;5052359;28;20041;-61
2023/01/27 08:17:38;;;;;;;8.82;2.40;;;6.40;1.00;;;;;;5048138;28;20045;-60
2023/01/27 08:20:04;;;;;;;6.70;1.98;;;6.20;1.00;;;;;;5086192;28;20075;-61
2023/01/27 08:22:30;;;;;;;7.65;2.53;;;6.30;1.00;;;;;;5068558;28;20040;-60
2023/01/27 08:24:56;;;;;;;8.98;2.33;;;6.30;1.00;;;;;;5051559;28;20482;-63
2023/01/27 08:27:22;;;;;;;6.95;2.30;;;6.30;1.00;;;;;;5051937;28;20051;-62
2023/01/27 08:29:47;;;;;;;7.40;2.20;;;6.30;1.00;;;;;;5051949;28;20033;-60
2023/01/27 08:32:13;;;;;;;7.50;2.10;;;6.40;1.00;;;;;;5050901;28;20291;-61
2023/01/27 08:34:39;;;;;;;9.27;2.10;;;6.50;1.00;;;;;;5051016;28;20083;-61
2023/01/27 08:37:05;;;;;;;8.85;2.13;;;6.50;1.00;;;;;;5051789;28;20029;-61
2023/01/27 08:39:32;;;;;;;5.38;2.20;;;6.50;1.00;;;;;;5058707;28;20204;-61
2023/01/27 08:41:57;;;;;;;5.05;2.10;;;6.50;1.00;;;;;;5052818;28;20037;-61
2023/01/27 08:44:24;;;;;;;6.60;2.13;;;6.50;1.00;;;;;;5066236;28;20055;-61
2023/01/27 08:46:49;;;;;;;5.10;2.00;;;6.40;1.00;;;;;;5048695;28;20498;-61
2023/01/27 08:49:15;;;;;;;6.07;1.70;;;6.60;99.90;;;;;;5053905;28;20041;-61
2023/01/27 08:51:41;;;;;;;6.25;2.25;;;6.50;99.90;;;;;;5063900;28;20037;-61
2023/01/27 08:54:08;;;;;;;5.72;1.98;;;6.50;99.90;;;;;;5052503;28;20449;-62
2023/01/27 08:56:33;;;;;;;5.07;2.15;;;6.50;99.90;;;;;;5052039;28;20115;-61
2023/01/27 08:58:59;;;;;;;7.20;1.80;;;6.60;99.90;;;;;;5032306;28;20166;-61
2023/01/27 09:01:25;;;;;;;7.18;1.90;;;6.70;99.90;;;;;;5049030;28;20128;-59
2023/01/27 09:03:51;;;;;;;6.75;2.00;;;6.60;99.90;;;;;;5050362;28;20040;-62
2023/01/27 09:06:17;;;;;;;6.63;2.10;;;6.60;99.90;;;;;;5048049;28;20041;-61
2023/01/27 09:08:43;;;;;;;5.85;2.03;;;6.60;99.90;;;;;;5049573;28;20071;-60
2023/01/27 09:11:13;;;;;;;5.93;1.85;;;6.70;99.90;;;;;;5049951;28;20083;-61
2023/01/27 09:13:39;;;;;;;3.45;1.67;;;6.60;99.90;;;;;;5049621;28;20033;-60
2023/01/27 09:16:05;;;;;;;6.75;2.05;;;6.70;99.90;;;;;;5050940;28;20044;-60
2023/01/27 09:18:31;;;;;;;4.43;1.90;;;6.60;99.90;;;;;;5051639;28;20441;-61
2023/01/27 09:20:56;;;;;;;7.07;1.85;;;6.60;99.90;;;;;;5050892;28;20041;-61
2023/01/27 09:23:22;;;;;;;6.82;2.25;;;6.60;99.90;;;;;;5048049;28;20047;-60
2023/01/27 09:25:48;;;;;;;5.25;2.00;;;6.60;99.90;;;;;;5050246;28;20043;-61
2023/01/27 09:28:17;;;;;;;6.82;2.10;;;6.60;99.90;;;;;;5051990;28;20388;-60
2023/01/27 09:30:44;;;;;;;5.82;1.90;;;6.60;99.90;;;;;;5065134;28;20041;-60
2023/01/27 09:33:11;;;;;;;5.63;1.70;;;6.70;99.90;;;;;;5051792;28;20041;-60
2023/01/27 09:35:49;;;;;;;7.07;2.13;;;6.80;99.90;;;;;;5052912;28;20037;-60
2023/01/27 09:38:18;;;;;;;3.78;1.67;;;6.80;99.90;;;;;;5055696;28;20045;-61
2023/01/27 09:41:04;;;;;;;7.75;1.95;;;6.80;99.90;;;;;;5072210;28;20060;-61
2023/01/27 09:43:53;;;;;;;6.22;2.00;;;6.80;99.90;;;;;;5055267;28;20044;-60
2023/01/27 09:46:29;;;;;;;5.55;1.50;;;6.80;99.90;;;;;;5050065;28;20056;-61
2023/01/27 09:49:36;;;;;;;5.60;1.65;;;6.80;99.90;;;;;;5048476;28;20506;-60
2023/01/27 09:52:47;;;;;;;4.90;1.90;;;6.90;99.90;;;;;;5047938;28;20075;-60
2023/01/27 09:55:18;;;;;;;6.15;1.88;;;6.80;99.90;;;;;;4974805;28;20406;-61
2023/01/27 09:58:04;;;;;;;4.60;1.80;;;6.90;99.90;;;;;;4969105;28;20034;-60
2023/01/27 10:00:56;;;;;;;4.25;1.63;;;6.80;99.90;;;;;;5021627;28;20510;-60
2023/01/27 10:04:00;;;;;;;6.38;1.70;;;6.80;99.90;;;;;;5050733;28;20055;-60
2023/01/27 10:07:02;;;;;;;3.53;1.40;;;6.80;99.80;;;;;;5032206;28;20503;-61
2023/01/27 10:09:33;;;;;;;4.18;1.58;;;6.90;95.30;;;;;;5051302;28;20387;-64
2023/01/27 10:12:24;;;;;;;5.05;1.40;;;6.90;94.60;;;;;;5067793;28;20091;-60
2023/01/27 10:15:23;;;;;;;6.72;1.63;;;6.90;94.90;;;;;;5051743;28;20045;-61
2023/01/27 10:18:37;;;;;;;4.70;1.42;;;6.90;94.10;;;;;;5036578;28;20107;-60
2023/01/27 10:21:12;;;;;;;9.43;1.60;;;6.90;99.10;;;;;;5007277;28;20046;-61
2023/01/27 10:23:47;;;;;;;4.70;1.67;;;7.00;93.90;;;;;;4970093;28;20108;-61
2023/01/27 10:26:39;;;;;;;2.53;1.20;;;7.10;94.50;;;;;;5036159;28;20091;-60
2023/01/27 10:29:32;;;;;;;3.70;1.60;;;7.00;95.20;;;;;;5034135;28;20459;-60
2023/01/27 10:32:22;;;;;;;7.43;1.30;;;7.00;95.30;;;;;;5048895;28;20045;-61
2023/01/27 10:35:19;;;;;;;3.92;1.50;;;7.10;94.50;;;;;;5049931;28;20048;-61
2023/01/27 10:37:53;;;;;;;3.05;1.33;;;7.10;93.20;;;;;;5048323;28;20053;-61
2023/01/27 10:40:47;;;;;;;8.65;1.67;;;7.10;91.70;;;;;;5036118;28;20044;-61
2023/01/27 10:43:26;;;;;;;6.85;1.63;;;7.20;93.30;;;;;;5047870;28;20136;-61
2023/01/27 10:46:05;;;;;;;4.15;1.38;;;7.20;93.60;;;;;;5033922;28;20045;-61
2023/01/27 10:48:49;;;;;;;3.75;1.30;;;7.30;95.00;;;;;;5050645;28;20048;-61
2023/01/27 10:51:27;;;;;;;4.03;1.50;;;7.30;93.50;;;;;;5050219;28;20048;-61
2023/01/27 10:54:01;;;;;;;7.50;1.70;;;7.40;91.60;;;;;;5050269;28;20362;-62
2023/01/27 10:56:41;;;;;;;5.45;1.70;;;7.40;91.70;;;;;;5065054;28;20037;-61
2023/01/27 10:59:28;;;;;;;4.68;1.60;;;7.40;89.40;;;;;;5048551;28;20025;-60
2023/01/27 11:02:09;;;;;;;3.70;1.70;;;7.50;84.00;;;;;;5048277;28;20053;-61
2023/01/27 11:04:40;;;;;;;7.22;2.20;;;7.50;88.30;;;;;;5052096;28;20412;-63
2023/01/27 11:07:06;;;;;;;4.50;1.85;;;7.50;88.70;;;;;;5047250;28;20531;-61
2023/01/27 11:09:36;;;;;;;5.25;1.65;;;7.40;90.60;;;;;;5042923;28;20099;-62
2023/01/27 11:12:11;;;;;;;2.20;1.25;;;7.50;92.60;;;;;;5085723;28;20082;-60
2023/01/27 11:14:51;;;;;;;4.35;1.40;;;7.50;93.10;;;;;;5052047;28;20040;-60
2023/01/27 11:17:41;;;;;;;4.15;1.20;;;7.40;94.30;;;;;;5050956;28;20029;-60
2023/01/27 11:20:48;;;;;;;3.38;1.27;;;7.40;94.90;;;;;;5045645;28;20104;-61
2023/01/27 11:23:18;;;;;;;3.88;1.33;;;7.30;95.90;;;;;;5046573;28;20071;-61
2023/01/27 11:25:52;;;;;;;5.13;1.50;;;7.30;94.70;;;;;;5046370;28;20041;-60
2023/01/27 11:28:31;;;;;;;4.40;2.05;;;7.20;95.80;;;;;;5062505;28;20083;-61
2023/01/27 11:31:15;;;;;;;3.92;1.65;;;7.10;99.80;;;;;;5066845;28;20097;-60
2023/01/27 11:33:56;;;;;;;4.72;2.00;;;7.10;99.90;;;;;;5043546;28;20513;-61
2023/01/27 11:36:25;;;;;;;3.22;1.63;;;7.10;99.90;;;;;;5083328;28;20113;-61
2023/01/27 11:38:53;;;;;;;3.95;1.70;;;7.10;99.90;;;;;;5051301;28;20115;-61
2023/01/27 11:41:19;;;;;;;6.63;1.80;;;7.00;99.90;;;;;;5056250;28;20115;-63
2023/01/27 11:43:44;;;;;;;4.43;1.52;;;7.10;99.90;;;;;;5062290;28;20137;-60
2023/01/27 11:46:16;;;;;;;4.32;1.30;;;7.20;99.90;;;;;;5042038;28;20116;-61
2023/01/27 11:48:45;;;;;;;6.10;1.50;;;7.10;99.90;;;;;;5048191;28;20034;-60
2023/01/27 11:51:22;;;;;;;3.95;1.42;;;7.20;99.90;;;;;;5050168;28;20037;-60
2023/01/27 11:54:04;;;;;;;3.35;1.52;;;7.10;99.90;;;;;;5047031;28;20052;-60
2023/01/27 11:56:32;;;;;;;9.63;1.77;;;7.70;99.90;;;;;;5050789;28;20033;-62
2023/01/27 11:59:08;;;;;;;5.05;1.30;;;7.20;99.90;;;;;;5047993;28;20053;-60
2023/01/27 12:01:33;;;;;;;;;;;7.30;99.90;;;;;;5045535;28;20044;-60
2023/01/27 12:04:08;;;;;;;4.00;1.20;;;7.10;99.90;;;;;;5050764;28;20374;-60
2023/01/27 12:06:43;;;;;;;8.02;1.50;;;7.10;99.90;;;;;;5049329;28;20036;-60
2023/01/27 12:09:32;;;;;;;5.47;1.30;;;7.10;99.90;;;;;;5049844;28;20516;-60
2023/01/27 12:12:12;;;;;;;4.43;1.38;;;7.10;99.90;;;;;;5041814;28;20419;-60
2023/01/27 12:14:38;;;;;;;2.85;1.27;;;7.10;99.90;;;;;;5032725;28;20045;-61
2023/01/27 12:17:07;;;;;;;2.10;1.05;;;7.10;99.90;;;;;;5046232;28;20029;-60
2023/01/27 12:19:39;;;;;;;5.25;1.50;;;7.20;99.90;;;;;;5048447;28;20033;-61
2023/01/27 12:22:29;;;;;;;2.92;1.50;;;7.10;99.90;;;;;;5052698;28;20577;-60
2023/01/27 12:24:59;;;;;;;4.63;1.25;;;6.90;99.90;;;;;;5053754;28;20049;-61
2023/01/27 12:27:28;;;;;;;6.63;1.55;;;7.00;99.90;;;;;;5051228;28;20033;-61
2023/01/27 12:29:57;;;;;;;3.63;1.33;;;6.90;99.90;;;;;;5049767;28;20475;-60
2023/01/27 12:32:38;;;;;;;5.22;1.75;;;6.90;99.90;;;;;;5043912;28;20127;-60
2023/01/27 12:35:06;;;;;;;5.97;1.60;;;6.90;99.90;;;;;;5052804;28;20422;-62
2023/01/27 12:37:37;;;;;;;7.05;2.10;;;6.90;99.90;;;;;;5048449;28;20047;-62
2023/01/27 12:40:06;;;;;;;4.13;1.60;;;6.70;99.90;;;;;;5050194;28;20116;-60
2023/01/27 12:42:46;;;;;;;5.13;1.80;;;6.70;99.90;;;;;;5067372;28;20068;-60
2023/01/27 12:45:29;;;;;;;3.30;1.60;;;6.70;99.90;;;;;;5064949;28;20482;-61
2023/01/27 12:48:13;;;;;;;7.38;1.70;;;6.80;99.90;;;;;;5051894;28;20098;-61
2023/01/27 12:51:12;;;;;;;4.78;1.60;;;7.00;99.90;;;;;;5065453;28;20291;-60
2023/01/27 12:53:42;;;;;;;4.78;1.58;;;6.90;99.90;;;;;;5049080;28;20041;-60
2023/01/27 12:56:31;;;;;;;2.83;1.20;;;6.70;99.90;;;;;;5052310;28;20037;-62
2023/01/27 12:58:58;;;;;;;3.25;1.17;;;6.80;99.90;;;;;;5050771;28;20029;-62
2023/01/27 13:01:36;;;;;;;3.78;1.30;;;6.80;99.90;;;;;;5051520;28;20060;-60
2023/01/27 13:04:16;;;;;;;2.78;1.30;;;6.70;99.90;;;;;;5051662;28;20073;-60
2023/01/27 13:06:49;;;;;;;3.13;1.30;;;7.00;99.90;;;;;;5047037;28;20517;-61
2023/01/27 13:09:17;;;;;;;7.47;1.50;;;7.00;99.90;;;;;;5051743;28;20052;-61
2023/01/27 13:11:44;;;;;;;4.20;1.50;;;6.70;99.90;;;;;;5048733;28;20064;-61
2023/01/27 13:14:16;;;;;;;4.55;1.70;;;6.80;99.90;;;;;;5048319;28;20053;-60
2023/01/27 13:16:58;;;;;;;5.28;1.67;;;6.80;99.90;;;;;;5049048;28;20029;-60
2023/01/27 13:19:42;;;;;;;3.20;1.50;;;6.60;99.90;;;;;;5052030;28;20534;-60
2023/01/27 13:22:17;;;;;;;5.28;1.27;;;6.90;1.00;;;;;;5063659;28;20033;-61
2023/01/27 13:24:43;;;;;;;3.97;1.42;;;6.70;1.00;;;;;;5046676;28;20131;-60
2023/01/27 13:27:17;;;;;;;3.00;1.30;;;6.90;1.00;;;;;;5048968;28;20119;-60
2023/01/27 13:29:55;;;;;;;2.28;1.10;;;6.70;1.00;;;;;;5048757;28;20907;-61
2023/01/27 13:32:26;;;;;;;3.75;1.40;;;6.70;99.90;;;;;;5042654;28;20585;-60
2023/01/27 13:34:51;;;;;;;2.08;1.40;;;6.70;99.90;;;;;;5047243;28;20063;-61
2023/01/27 13:37:31;;;;;;;3.10;1.35;;;6.70;99.90;;;;;;5047990;28;20045;-60
2023/01/27 13:40:07;;;;;;;5.05;1.20;;;6.80;99.90;;;;;;5048150;28;20033;-60
2023/01/27 13:42:42;;;;;;;1.77;0.95;;;6.90;99.90;;;;;;5040756;28;20044;-60
2023/01/27 13:45:23;;;;;;;2.70;0.80;;;6.80;99.90;;;;;;5046613;28;20036;-60
2023/01/27 13:48:21;;;;;;;1.50;0.90;;;6.90;99.90;;;;;;5051184;28;20040;-60
2023/01/27 13:51:02;;;;;;;4.22;0.90;;;7.00;99.90;;;;;;5051131;28;20066;-60
2023/01/27 13:53:28;;;;;;;1.40;0.80;;;6.80;99.90;;;;;;5050645;28;20039;-61